Terminal Aerodrome Forecast
Issued by NWS Sioux Falls, SD

Home | Current Version | Previous Version | Graphics & Text | Print | Product List | Glossary Off
Versions: 1 2 3 4 5 6 7 8 9 10 11 12 13 14 15 16 17 18 19 20 21

000
FTUS43 KFSD 240520
TAFHON
TAF
KHON 240520Z 2406/2506 12013KT P6SM SKC
     FM241300 14011KT P6SM VCSH OVC080
     FM241500 15012G19KT P6SM SHRA VCTS OVC040CB
     FM241800 17014KT P6SM OVC025
     FM242100 19012KT P6SM BKN050=

USA.gov is the U.S. government's official web portal to all federal, state and local government web resources and services.